sensor_id;sensor_type;location;lat;lon;timestamp;pressure;altitude;pressure_sealevel;temperature;humidity
50464;BME280;62167;38.552;-121.478;2022-10-04T00:00:38;101283.41;;;29.40;33.99
50464;BME280;62167;38.552;-121.478;2022-10-04T00:03:08;101286.72;;;29.32;33.61
50464;BME280;62167;38.552;-121.478;2022-10-04T00:05:36;101287.25;;;29.24;34.40
50464;BME280;62167;38.552;-121.478;2022-10-04T00:08:27;101282.81;;;29.23;34.12
50464;BME280;62167;38.552;-121.478;2022-10-04T00:13:57;101275.91;;;29.20;33.87
50464;BME280;62167;38.552;-121.478;2022-10-04T00:16:36;101279.75;;;29.09;34.04
50464;BME280;62167;38.552;-121.478;2022-10-04T00:24:23;101281.44;;;28.95;34.04
50464;BME280;62167;38.552;-121.478;2022-10-04T00:29:39;101275.84;;;28.85;33.81
50464;BME280;62167;38.552;-121.478;2022-10-04T00:34:48;101277.47;;;28.76;35.09
50464;BME280;62167;38.552;-121.478;2022-10-04T00:37:17;101272.75;;;28.71;35.81
50464;BME280;62167;38.552;-121.478;2022-10-04T00:42:21;101266.06;;;28.62;34.59
50464;BME280;62167;38.552;-121.478;2022-10-04T00:44:59;101277.66;;;28.54;35.14
50464;BME280;62167;38.552;-121.478;2022-10-04T00:47:54;101276.78;;;28.43;35.63
50464;BME280;62167;38.552;-121.478;2022-10-04T00:50:35;101280.34;;;28.33;35.18
50464;BME280;62167;38.552;-121.478;2022-10-04T00:56:07;101281.38;;;28.22;35.84
50464;BME280;62167;38.552;-121.478;2022-10-04T00:59:03;101277.75;;;28.11;36.33
50464;BME280;62167;38.552;-121.478;2022-10-04T01:01:27;101273.28;;;28.05;36.29
50464;BME280;62167;38.552;-121.478;2022-10-04T01:03:55;101275.19;;;28.00;36.59
50464;BME280;62167;38.552;-121.478;2022-10-04T01:06:23;101284.25;;;27.85;37.46
50464;BME280;62167;38.552;-121.478;2022-10-04T01:08:54;101278.09;;;27.78;37.32
50464;BME280;62167;38.552;-121.478;2022-10-04T01:11:35;101284.38;;;27.68;38.07
50464;BME280;62167;38.552;-121.478;2022-10-04T01:14:41;101287.63;;;27.60;38.04
50464;BME280;62167;38.552;-121.478;2022-10-04T01:17:12;101293.97;;;27.55;37.91
50464;BME280;62167;38.552;-121.478;2022-10-04T01:19:49;101292.22;;;27.44;37.67
50464;BME280;62167;38.552;-121.478;2022-10-04T01:25:03;101298.59;;;27.12;37.99
50464;BME280;62167;38.552;-121.478;2022-10-04T01:30:08;101299.53;;;27.01;38.20
50464;BME280;62167;38.552;-121.478;2022-10-04T01:32:36;101300.75;;;26.83;39.00
50464;BME280;62167;38.552;-121.478;2022-10-04T01:35:05;101299.53;;;26.74;38.50
50464;BME280;62167;38.552;-121.478;2022-10-04T01:37:32;101298.13;;;26.72;39.31
50464;BME280;62167;38.552;-121.478;2022-10-04T01:39:58;101294.72;;;26.64;38.82
50464;BME280;62167;38.552;-121.478;2022-10-04T01:42:39;101305.03;;;26.47;39.60
50464;BME280;62167;38.552;-121.478;2022-10-04T01:45:18;101306.97;;;26.30;39.91
50464;BME280;62167;38.552;-121.478;2022-10-04T01:48:01;101304.00;;;26.14;40.14
50464;BME280;62167;38.552;-121.478;2022-10-04T01:53:28;101302.59;;;25.95;40.84
50464;BME280;62167;38.552;-121.478;2022-10-04T01:56:16;101313.28;;;25.86;41.11
50464;BME280;62167;38.552;-121.478;2022-10-04T01:59:03;101317.81;;;25.76;41.54
50464;BME280;62167;38.552;-121.478;2022-10-04T02:04:08;101314.50;;;25.45;42.28
50464;BME280;62167;38.552;-121.478;2022-10-04T02:06:39;101316.59;;;25.38;42.18
50464;BME280;62167;38.552;-121.478;2022-10-04T02:09:19;101319.69;;;25.25;42.72
50464;BME280;62167;38.552;-121.478;2022-10-04T02:11:47;101318.31;;;25.10;43.01
50464;BME280;62167;38.552;-121.478;2022-10-04T02:14:21;101312.69;;;25.05;43.23
50464;BME280;62167;38.552;-121.478;2022-10-04T02:16:49;101317.91;;;24.90;43.69
50464;BME280;62167;38.552;-121.478;2022-10-04T02:19:23;101317.69;;;24.80;43.94
50464;BME280;62167;38.552;-121.478;2022-10-04T02:21:52;101318.97;;;24.61;44.82
50464;BME280;62167;38.552;-121.478;2022-10-04T02:24:20;101319.34;;;24.52;44.44
50464;BME280;62167;38.552;-121.478;2022-10-04T02:26:53;101330.50;;;24.34;45.01
50464;BME280;62167;38.552;-121.478;2022-10-04T02:29:20;101328.09;;;24.26;45.02
50464;BME280;62167;38.552;-121.478;2022-10-04T02:31:50;101330.28;;;24.24;45.12
50464;BME280;62167;38.552;-121.478;2022-10-04T02:34:35;101333.28;;;24.11;45.26
50464;BME280;62167;38.552;-121.478;2022-10-04T02:37:03;101331.63;;;23.98;45.48
50464;BME280;62167;38.552;-121.478;2022-10-04T02:39:36;101331.25;;;23.83;45.48
50464;BME280;62167;38.552;-121.478;2022-10-04T02:42:13;101337.44;;;23.66;45.75
50464;BME280;62167;38.552;-121.478;2022-10-04T02:47:51;101344.19;;;23.40;46.34
50464;BME280;62167;38.552;-121.478;2022-10-04T02:50:32;101341.91;;;23.37;46.46
50464;BME280;62167;38.552;-121.478;2022-10-04T02:53:20;101353.44;;;23.16;46.86
50464;BME280;62167;38.552;-121.478;2022-10-04T02:55:49;101348.50;;;23.06;47.12
50464;BME280;62167;38.552;-121.478;2022-10-04T02:58:19;101355.56;;;23.02;47.07
50464;BME280;62167;38.552;-121.478;2022-10-04T03:00:55;101358.84;;;22.92;47.19
50464;BME280;62167;38.552;-121.478;2022-10-04T03:03:33;101360.19;;;22.83;47.61
50464;BME280;62167;38.552;-121.478;2022-10-04T03:06:11;101355.34;;;22.67;47.88
50464;BME280;62167;38.552;-121.478;2022-10-04T03:11:09;101364.41;;;22.49;48.34
50464;BME280;62167;38.552;-121.478;2022-10-04T03:13:46;101367.41;;;22.47;48.10
50464;BME280;62167;38.552;-121.478;2022-10-04T03:16:14;101361.38;;;22.39;48.40
50464;BME280;62167;38.552;-121.478;2022-10-04T03:18:42;101363.56;;;22.30;49.00
50464;BME280;62167;38.552;-121.478;2022-10-04T03:21:11;101375.38;;;22.12;48.88
50464;BME280;62167;38.552;-121.478;2022-10-04T03:23:40;101378.00;;;22.00;49.13
50464;BME280;62167;38.552;-121.478;2022-10-04T03:26:31;101380.84;;;21.87;49.77
50464;BME280;62167;38.552;-121.478;2022-10-04T03:28:59;101373.44;;;21.88;49.33
50464;BME280;62167;38.552;-121.478;2022-10-04T03:31:26;101377.94;;;21.82;49.97
50464;BME280;62167;38.552;-121.478;2022-10-04T03:33:54;101377.38;;;21.73;49.97
50464;BME280;62167;38.552;-121.478;2022-10-04T03:36:22;101379.16;;;21.61;50.14
50464;BME280;62167;38.552;-121.478;2022-10-04T03:38:52;101380.06;;;21.55;50.46
50464;BME280;62167;38.552;-121.478;2022-10-04T03:41:21;101377.97;;;21.50;50.57
50464;BME280;62167;38.552;-121.478;2022-10-04T03:43:49;101379.13;;;21.36;51.05
50464;BME280;62167;38.552;-121.478;2022-10-04T03:46:16;101374.72;;;21.35;50.38
50464;BME280;62167;38.552;-121.478;2022-10-04T03:48:46;101378.28;;;21.36;50.76
50464;BME280;62167;38.552;-121.478;2022-10-04T03:51:25;101385.88;;;21.34;50.58
50464;BME280;62167;38.552;-121.478;2022-10-04T03:53:59;101376.88;;;21.20;50.94
50464;BME280;62167;38.552;-121.478;2022-10-04T03:56:33;101386.84;;;21.08;51.52
50464;BME280;62167;38.552;-121.478;2022-10-04T03:59:04;101390.41;;;21.08;51.10
50464;BME280;62167;38.552;-121.478;2022-10-04T04:01:42;101389.84;;;20.99;51.52
50464;BME280;62167;38.552;-121.478;2022-10-04T04:04:45;101390.91;;;20.98;51.40
50464;BME280;62167;38.552;-121.478;2022-10-04T04:07:29;101389.25;;;20.91;51.82
50464;BME280;62167;38.552;-121.478;2022-10-04T04:10:12;101382.09;;;20.83;51.75
50464;BME280;62167;38.552;-121.478;2022-10-04T04:13:08;101388.88;;;20.81;51.85
50464;BME280;62167;38.552;-121.478;2022-10-04T04:15:32;101386.81;;;20.69;52.13
50464;BME280;62167;38.552;-121.478;2022-10-04T04:18:03;101386.44;;;20.59;52.46
50464;BME280;62167;38.552;-121.478;2022-10-04T04:20:33;101385.81;;;20.51;52.39
50464;BME280;62167;38.552;-121.478;2022-10-04T04:23:04;101392.13;;;20.51;52.60
50464;BME280;62167;38.552;-121.478;2022-10-04T04:25:38;101390.22;;;20.45;52.50
50464;BME280;62167;38.552;-121.478;2022-10-04T04:28:27;101390.25;;;20.38;52.61
50464;BME280;62167;38.552;-121.478;2022-10-04T04:31:07;101387.50;;;20.32;53.02
50464;BME280;62167;38.552;-121.478;2022-10-04T04:34:03;101389.44;;;20.25;52.69
50464;BME280;62167;38.552;-121.478;2022-10-04T04:36:38;101394.91;;;20.18;52.73
50464;BME280;62167;38.552;-121.478;2022-10-04T04:39:26;101393.66;;;20.07;53.10
50464;BME280;62167;38.552;-121.478;2022-10-04T04:44:54;101393.47;;;20.02;53.14
50464;BME280;62167;38.552;-121.478;2022-10-04T04:47:37;101398.69;;;19.97;53.69
50464;BME280;62167;38.552;-121.478;2022-10-04T04:50:12;101395.13;;;19.90;53.66
50464;BME280;62167;38.552;-121.478;2022-10-04T04:52:44;101394.72;;;19.80;54.02
50464;BME280;62167;38.552;-121.478;2022-10-04T04:55:24;101395.78;;;19.72;53.98
50464;BME280;62167;38.552;-121.478;2022-10-04T04:57:53;101396.59;;;19.66;54.21
50464;BME280;62167;38.552;-121.478;2022-10-04T05:00:26;101398.47;;;19.59;54.61
50464;BME280;62167;38.552;-121.478;2022-10-04T05:03:02;101390.72;;;19.62;54.70
50464;BME280;62167;38.552;-121.478;2022-10-04T05:05:30;101395.94;;;19.57;54.86
50464;BME280;62167;38.552;-121.478;2022-10-04T05:10:35;101394.66;;;19.53;55.14
50464;BME280;62167;38.552;-121.478;2022-10-04T05:13:05;101397.19;;;19.48;54.96
50464;BME280;62167;38.552;-121.478;2022-10-04T05:15:38;101389.16;;;19.40;55.18
50464;BME280;62167;38.552;-121.478;2022-10-04T05:18:32;101404.50;;;19.28;55.60
50464;BME280;62167;38.552;-121.478;2022-10-04T05:21:22;101392.72;;;19.27;55.77
50464;BME280;62167;38.552;-121.478;2022-10-04T05:23:50;101396.31;;;19.28;55.57
50464;BME280;62167;38.552;-121.478;2022-10-04T05:26:25;101391.25;;;19.18;56.05
50464;BME280;62167;38.552;-121.478;2022-10-04T05:28:55;101386.16;;;19.15;56.17
50464;BME280;62167;38.552;-121.478;2022-10-04T05:31:31;101385.34;;;19.14;56.12
50464;BME280;62167;38.552;-121.478;2022-10-04T05:34:01;101387.22;;;19.07;56.57
50464;BME280;62167;38.552;-121.478;2022-10-04T05:36:58;101391.16;;;18.98;56.91
50464;BME280;62167;38.552;-121.478;2022-10-04T05:44:52;101384.63;;;18.86;57.57
50464;BME280;62167;38.552;-121.478;2022-10-04T05:47:27;101391.69;;;18.74;57.73
50464;BME280;62167;38.552;-121.478;2022-10-04T05:49:57;101396.31;;;18.73;57.94
50464;BME280;62167;38.552;-121.478;2022-10-04T05:52:37;101398.75;;;18.61;58.11
50464;BME280;62167;38.552;-121.478;2022-10-04T06:03:53;101413.81;;;18.51;58.79
50464;BME280;62167;38.552;-121.478;2022-10-04T06:06:30;101410.84;;;18.46;58.76
50464;BME280;62167;38.552;-121.478;2022-10-04T06:23:01;101418.44;;;18.22;59.55
50464;BME280;62167;38.552;-121.478;2022-10-04T06:25:37;101422.78;;;18.10;60.02
50464;BME280;62167;38.552;-121.478;2022-10-04T06:37:02;101417.78;;;17.92;60.67
50464;BME280;62167;38.552;-121.478;2022-10-04T06:51:25;101425.66;;;17.80;61.18
50464;BME280;62167;38.552;-121.478;2022-10-04T06:54:02;101424.63;;;17.81;61.24
50464;BME280;62167;38.552;-121.478;2022-10-04T07:02:19;101424.41;;;17.61;62.09
50464;BME280;62167;38.552;-121.478;2022-10-04T07:04:57;101419.72;;;17.55;62.33
50464;BME280;62167;38.552;-121.478;2022-10-04T07:07:38;101417.59;;;17.51;62.31
50464;BME280;62167;38.552;-121.478;2022-10-04T07:16:07;101420.06;;;17.46;62.61
50464;BME280;62167;38.552;-121.478;2022-10-04T07:21:08;101416.69;;;17.44;62.62
50464;BME280;62167;38.552;-121.478;2022-10-04T07:23:54;101417.53;;;17.44;62.77
50464;BME280;62167;38.552;-121.478;2022-10-04T07:29:18;101405.91;;;17.35;63.56
50464;BME280;62167;38.552;-121.478;2022-10-04T07:37:10;101410.63;;;17.27;63.95
50464;BME280;62167;38.552;-121.478;2022-10-04T07:39:44;101414.38;;;17.26;64.19
50464;BME280;62167;38.552;-121.478;2022-10-04T07:45:02;101406.00;;;17.27;64.08
50464;BME280;62167;38.552;-121.478;2022-10-04T07:47:31;101410.56;;;17.20;64.31
50464;BME280;62167;38.552;-121.478;2022-10-04T07:49:57;101421.44;;;17.20;64.42
50464;BME280;62167;38.552;-121.478;2022-10-04T07:55:12;101412.03;;;17.23;64.46
50464;BME280;62167;38.552;-121.478;2022-10-04T08:00:56;101413.84;;;17.16;64.99
50464;BME280;62167;38.552;-121.478;2022-10-04T08:03:40;101410.03;;;17.10;64.99
50464;BME280;62167;38.552;-121.478;2022-10-04T08:25:33;101412.88;;;16.87;66.25
50464;BME280;62167;38.552;-121.478;2022-10-04T08:31:56;101416.34;;;16.81;67.10
50464;BME280;62167;38.552;-121.478;2022-10-04T08:54:27;101425.47;;;16.58;68.77
50464;BME280;62167;38.552;-121.478;2022-10-04T09:00:26;101433.13;;;16.55;69.23
50464;BME280;62167;38.552;-121.478;2022-10-04T09:03:05;101427.22;;;16.51;69.38
50464;BME280;62167;38.552;-121.478;2022-10-04T09:05:54;101424.69;;;16.50;69.21
50464;BME280;62167;38.552;-121.478;2022-10-04T09:12:00;101432.84;;;16.50;69.33
50464;BME280;62167;38.552;-121.478;2022-10-04T09:14:55;101435.94;;;16.47;69.15
50464;BME280;62167;38.552;-121.478;2022-10-04T09:23:18;101434.72;;;16.34;69.90
50464;BME280;62167;38.552;-121.478;2022-10-04T09:34:34;101434.69;;;16.20;70.21
50464;BME280;62167;38.552;-121.478;2022-10-04T09:37:42;101441.72;;;16.14;70.50
50464;BME280;62167;38.552;-121.478;2022-10-04T09:46:11;101431.59;;;16.08;71.10
50464;BME280;62167;38.552;-121.478;2022-10-04T09:52:12;101436.25;;;15.99;71.37
50464;BME280;62167;38.552;-121.478;2022-10-04T10:25:46;101418.81;;;15.71;72.58
50464;BME280;62167;38.552;-121.478;2022-10-04T10:28:41;101422.75;;;15.68;72.88
50464;BME280;62167;38.552;-121.478;2022-10-04T10:31:52;101428.38;;;15.67;72.62
50464;BME280;62167;38.552;-121.478;2022-10-04T10:37:06;101420.59;;;15.64;72.87
50464;BME280;62167;38.552;-121.478;2022-10-04T10:40:02;101413.44;;;15.63;72.92
50464;BME280;62167;38.552;-121.478;2022-10-04T10:42:58;101413.16;;;15.57;73.22
50464;BME280;62167;38.552;-121.478;2022-10-04T10:57:27;101411.22;;;15.43;73.33
50464;BME280;62167;38.552;-121.478;2022-10-04T11:00:21;101412.41;;;15.41;73.41
50464;BME280;62167;38.552;-121.478;2022-10-04T11:08:50;101412.28;;;15.34;74.07
50464;BME280;62167;38.552;-121.478;2022-10-04T11:11:46;101401.81;;;15.31;73.93
50464;BME280;62167;38.552;-121.478;2022-10-04T11:15:04;101400.47;;;15.27;74.06
50464;BME280;62167;38.552;-121.478;2022-10-04T11:23:26;101415.91;;;15.26;74.66
50464;BME280;62167;38.552;-121.478;2022-10-04T11:26:14;101412.69;;;15.23;74.67
50464;BME280;62167;38.552;-121.478;2022-10-04T11:37:49;101413.25;;;15.18;74.77
50464;BME280;62167;38.552;-121.478;2022-10-04T11:45:53;101413.28;;;15.10;74.94
50464;BME280;62167;38.552;-121.478;2022-10-04T11:48:45;101409.25;;;15.06;75.50
50464;BME280;62167;38.552;-121.478;2022-10-04T12:05:22;101427.44;;;14.97;75.56
50464;BME280;62167;38.552;-121.478;2022-10-04T12:10:38;101427.25;;;14.99;75.23
50464;BME280;62167;38.552;-121.478;2022-10-04T12:16:09;101429.00;;;14.92;75.61
50464;BME280;62167;38.552;-121.478;2022-10-04T12:32:27;101449.03;;;14.74;76.63
50464;BME280;62167;38.552;-121.478;2022-10-04T12:40:48;101454.63;;;14.81;76.55
50464;BME280;62167;38.552;-121.478;2022-10-04T13:03:00;101449.75;;;14.68;76.94
50464;BME280;62167;38.552;-121.478;2022-10-04T13:08:17;101456.34;;;14.74;76.90
50464;BME280;62167;38.552;-121.478;2022-10-04T13:11:09;101458.22;;;14.73;77.33
50464;BME280;62167;38.552;-121.478;2022-10-04T13:14:26;101462.97;;;14.71;77.80
50464;BME280;62167;38.552;-121.478;2022-10-04T13:17:03;101465.50;;;14.73;77.77
50464;BME280;62167;38.552;-121.478;2022-10-04T13:22:05;101468.03;;;14.74;77.84
50464;BME280;62167;38.552;-121.478;2022-10-04T13:24:42;101463.31;;;14.76;77.80
50464;BME280;62167;38.552;-121.478;2022-10-04T13:30:53;101468.03;;;14.74;78.16
50464;BME280;62167;38.552;-121.478;2022-10-04T13:38:45;101472.66;;;14.66;79.08
50464;BME280;62167;38.552;-121.478;2022-10-04T13:46:52;101477.91;;;14.59;80.12
50464;BME280;62167;38.552;-121.478;2022-10-04T13:49:55;101483.00;;;14.54;80.63
50464;BME280;62167;38.552;-121.478;2022-10-04T13:52:50;101482.00;;;14.55;80.39
50464;BME280;62167;38.552;-121.478;2022-10-04T14:13:34;101508.75;;;14.34;81.69
50464;BME280;62167;38.552;-121.478;2022-10-04T14:16:12;101503.00;;;14.37;81.09
50464;BME280;62167;38.552;-121.478;2022-10-04T14:32:56;101529.09;;;14.38;80.90
50464;BME280;62167;38.552;-121.478;2022-10-04T14:41:34;101537.06;;;14.39;81.28
50464;BME280;62167;38.552;-121.478;2022-10-04T15:11:52;101559.91;;;14.86;81.01
50464;BME280;62167;38.552;-121.478;2022-10-04T15:17:33;101570.06;;;14.92;80.43
50464;BME280;62167;38.552;-121.478;2022-10-04T15:20:19;101571.56;;;15.02;80.54
50464;BME280;62167;38.552;-121.478;2022-10-04T15:23:17;101575.13;;;15.11;79.78
50464;BME280;62167;38.552;-121.478;2022-10-04T15:26:51;101570.16;;;15.15;79.66
50464;BME280;62167;38.552;-121.478;2022-10-04T15:34:24;101582.28;;;15.43;78.56
50464;BME280;62167;38.552;-121.478;2022-10-04T15:37:20;101586.59;;;15.61;77.83
50464;BME280;62167;38.552;-121.478;2022-10-04T15:52:04;101590.53;;;15.66;77.13
50464;BME280;62167;38.552;-121.478;2022-10-04T16:00:22;101598.94;;;15.79;76.78
50464;BME280;62167;38.552;-121.478;2022-10-04T16:05:43;101588.94;;;16.03;76.46
50464;BME280;62167;38.552;-121.478;2022-10-04T16:14:27;101585.06;;;16.20;75.44
50464;BME280;62167;38.552;-121.478;2022-10-04T16:24:41;101590.44;;;16.51;73.46
50464;BME280;62167;38.552;-121.478;2022-10-04T16:30:11;101592.97;;;16.76;73.27
50464;BME280;62167;38.552;-121.478;2022-10-04T16:32:43;101587.53;;;16.91;72.87
50464;BME280;62167;38.552;-121.478;2022-10-04T16:38:02;101593.16;;;17.78;69.88
50464;BME280;62167;38.552;-121.478;2022-10-04T16:53:46;101600.59;;;20.81;60.22
50464;BME280;62167;38.552;-121.478;2022-10-04T16:56:24;101593.81;;;21.30;58.04
50464;BME280;62167;38.552;-121.478;2022-10-04T17:09:46;101600.34;;;22.75;53.42
50464;BME280;62167;38.552;-121.478;2022-10-04T17:12:45;101602.78;;;22.90;52.69
50464;BME280;62167;38.552;-121.478;2022-10-04T17:29:26;101600.84;;;24.73;47.87
50464;BME280;62167;38.552;-121.478;2022-10-04T17:32:02;101606.28;;;25.26;47.58
50464;BME280;62167;38.552;-121.478;2022-10-04T17:34:55;101604.38;;;25.67;46.52
50464;BME280;62167;38.552;-121.478;2022-10-04T17:37:47;101605.19;;;25.91;44.98
50464;BME280;62167;38.552;-121.478;2022-10-04T17:43:14;101601.44;;;26.14;45.14
50464;BME280;62167;38.552;-121.478;2022-10-04T17:45:51;101592.13;;;26.32;44.16
50464;BME280;62167;38.552;-121.478;2022-10-04T17:54:17;101587.63;;;26.59;43.51
50464;BME280;62167;38.552;-121.478;2022-10-04T17:59:54;101591.06;;;26.50;43.31
50464;BME280;62167;38.552;-121.478;2022-10-04T18:05:19;101577.66;;;27.09;42.01
50464;BME280;62167;38.552;-121.478;2022-10-04T18:11:01;101577.22;;;27.39;40.94
50464;BME280;62167;38.552;-121.478;2022-10-04T18:13:48;101576.75;;;27.47;40.10
50464;BME280;62167;38.552;-121.478;2022-10-04T18:16:27;101573.88;;;27.81;40.62
50464;BME280;62167;38.552;-121.478;2022-10-04T18:18:54;101571.16;;;27.20;41.64
50464;BME280;62167;38.552;-121.478;2022-10-04T18:21:30;101566.44;;;27.21;41.52
50464;BME280;62167;38.552;-121.478;2022-10-04T18:24:19;101553.97;;;27.40;41.73
50464;BME280;62167;38.552;-121.478;2022-10-04T18:27:00;101549.66;;;27.71;40.74
50464;BME280;62167;38.552;-121.478;2022-10-04T18:29:40;101555.91;;;27.83;40.66
50464;BME280;62167;38.552;-121.478;2022-10-04T18:32:31;101554.13;;;27.99;40.02
50464;BME280;62167;38.552;-121.478;2022-10-04T18:35:01;101553.13;;;28.37;39.67
50464;BME280;62167;38.552;-121.478;2022-10-04T18:37:35;101546.81;;;28.15;39.79
50464;BME280;62167;38.552;-121.478;2022-10-04T18:40:23;101543.84;;;27.73;40.56
50464;BME280;62167;38.552;-121.478;2022-10-04T18:42:52;101552.59;;;27.37;40.43
50464;BME280;62167;38.552;-121.478;2022-10-04T18:45:22;101547.00;;;27.81;40.06
50464;BME280;62167;38.552;-121.478;2022-10-04T18:47:51;101540.44;;;28.14;39.11
50464;BME280;62167;38.552;-121.478;2022-10-04T18:56:17;101545.06;;;28.73;38.34
50464;BME280;62167;38.552;-121.478;2022-10-04T19:07:40;101534.66;;;28.53;38.21
50464;BME280;62167;38.552;-121.478;2022-10-04T19:10:25;101533.91;;;28.31;39.17
50464;BME280;62167;38.552;-121.478;2022-10-04T19:18:57;101517.56;;;28.02;39.58
50464;BME280;62167;38.552;-121.478;2022-10-04T19:26:43;101512.63;;;28.04;40.92
50464;BME280;62167;38.552;-121.478;2022-10-04T19:32:09;101505.50;;;28.13;40.67
50464;BME280;62167;38.552;-121.478;2022-10-04T19:37:46;101494.66;;;27.80;40.60
50464;BME280;62167;38.552;-121.478;2022-10-04T19:40:39;101493.75;;;28.01;40.51
50464;BME280;62167;38.552;-121.478;2022-10-04T19:43:13;101492.88;;;27.68;41.34
50464;BME280;62167;38.552;-121.478;2022-10-04T19:48:35;101486.53;;;28.00;41.14
50464;BME280;62167;38.552;-121.478;2022-10-04T19:51:15;101488.66;;;27.88;41.29
50464;BME280;62167;38.552;-121.478;2022-10-04T19:53:45;101493.31;;;27.60;41.88
50464;BME280;62167;38.552;-121.478;2022-10-04T19:56:22;101491.25;;;27.73;40.35
50464;BME280;62167;38.552;-121.478;2022-10-04T19:58:57;101484.97;;;27.55;41.39
50464;BME280;62167;38.552;-121.478;2022-10-04T20:01:26;101474.00;;;27.65;40.85
50464;BME280;62167;38.552;-121.478;2022-10-04T20:03:54;101475.56;;;27.56;40.85
50464;BME280;62167;38.552;-121.478;2022-10-04T20:06:52;101464.91;;;27.70;40.78
50464;BME280;62167;38.552;-121.478;2022-10-04T20:09:52;101460.31;;;27.54;40.82
50464;BME280;62167;38.552;-121.478;2022-10-04T20:12:39;101457.28;;;27.55;40.11
50464;BME280;62167;38.552;-121.478;2022-10-04T20:18:01;101448.50;;;27.63;40.30
50464;BME280;62167;38.552;-121.478;2022-10-04T20:23:04;101442.66;;;27.60;40.29
50464;BME280;62167;38.552;-121.478;2022-10-04T20:37:01;101417.66;;;27.77;40.56
50464;BME280;62167;38.552;-121.478;2022-10-04T20:42:31;101408.34;;;27.88;39.82
50464;BME280;62167;38.552;-121.478;2022-10-04T20:52:54;101394.72;;;28.18;38.13
50464;BME280;62167;38.552;-121.478;2022-10-04T20:55:26;101394.13;;;28.16;38.53
50464;BME280;62167;38.552;-121.478;2022-10-04T20:58:03;101395.69;;;28.34;38.72
50464;BME280;62167;38.552;-121.478;2022-10-04T21:00:55;101394.19;;;28.27;37.66
50464;BME280;62167;38.552;-121.478;2022-10-04T21:03:22;101384.63;;;28.39;38.05
50464;BME280;62167;38.552;-121.478;2022-10-04T21:06:06;101377.50;;;28.59;38.13
50464;BME280;62167;38.552;-121.478;2022-10-04T21:08:34;101379.22;;;28.70;37.42
50464;BME280;62167;38.552;-121.478;2022-10-04T21:11:06;101366.78;;;28.83;37.92
50464;BME280;62167;38.552;-121.478;2022-10-04T21:13:52;101369.59;;;28.93;37.57
50464;BME280;62167;38.552;-121.478;2022-10-04T21:16:52;101365.22;;;29.02;35.98
50464;BME280;62167;38.552;-121.478;2022-10-04T21:27:33;101344.72;;;29.29;36.29
50464;BME280;62167;38.552;-121.478;2022-10-04T21:30:02;101350.28;;;29.39;35.43
50464;BME280;62167;38.552;-121.478;2022-10-04T21:32:33;101347.50;;;29.39;34.97
50464;BME280;62167;38.552;-121.478;2022-10-04T21:35:00;101351.41;;;29.48;33.87
50464;BME280;62167;38.552;-121.478;2022-10-04T21:37:28;101343.94;;;29.59;34.95
50464;BME280;62167;38.552;-121.478;2022-10-04T21:39:55;101337.00;;;29.71;34.93
50464;BME280;62167;38.552;-121.478;2022-10-04T21:42:21;101336.16;;;29.81;34.77
50464;BME280;62167;38.552;-121.478;2022-10-04T21:44:47;101330.88;;;29.80;34.92
50464;BME280;62167;38.552;-121.478;2022-10-04T21:47:14;101327.00;;;29.81;34.13
50464;BME280;62167;38.552;-121.478;2022-10-04T21:49:40;101324.75;;;29.98;34.37
50464;BME280;62167;38.552;-121.478;2022-10-04T21:52:06;101325.25;;;30.10;34.61
50464;BME280;62167;38.552;-121.478;2022-10-04T21:54:33;101320.28;;;30.17;32.68
50464;BME280;62167;38.552;-121.478;2022-10-04T21:57:00;101312.47;;;30.19;33.00
50464;BME280;62167;38.552;-121.478;2022-10-04T21:59:26;101305.22;;;30.29;32.32
50464;BME280;62167;38.552;-121.478;2022-10-04T22:01:53;101300.16;;;30.41;33.63
50464;BME280;62167;38.552;-121.478;2022-10-04T22:04:19;101297.38;;;30.41;32.54
50464;BME280;62167;38.552;-121.478;2022-10-04T22:06:45;101298.53;;;30.35;33.28
50464;BME280;62167;38.552;-121.478;2022-10-04T22:09:11;101294.94;;;30.29;31.32
50464;BME280;62167;38.552;-121.478;2022-10-04T22:11:38;101303.28;;;30.29;31.14
50464;BME280;62167;38.552;-121.478;2022-10-04T22:14:04;101291.34;;;30.23;31.33
50464;BME280;62167;38.552;-121.478;2022-10-04T22:16:30;101284.97;;;30.23;30.80
50464;BME280;62167;38.552;-121.478;2022-10-04T22:18:57;101293.06;;;29.99;31.38
50464;BME280;62167;38.552;-121.478;2022-10-04T22:21:23;101287.19;;;30.06;31.17
50464;BME280;62167;38.552;-121.478;2022-10-04T22:23:49;101289.13;;;30.05;32.39
50464;BME280;62167;38.552;-121.478;2022-10-04T22:26:20;101281.94;;;29.94;31.40
50464;BME280;62167;38.552;-121.478;2022-10-04T22:28:54;101275.03;;;29.91;31.48
50464;BME280;62167;38.552;-121.478;2022-10-04T22:31:25;101274.47;;;29.89;32.24
50464;BME280;62167;38.552;-121.478;2022-10-04T22:33:52;101279.44;;;29.97;32.52
50464;BME280;62167;38.552;-121.478;2022-10-04T22:41:44;101281.38;;;30.02;31.06
50464;BME280;62167;38.552;-121.478;2022-10-04T22:44:22;101278.38;;;29.88;30.96
50464;BME280;62167;38.552;-121.478;2022-10-04T22:46:52;101278.06;;;29.85;30.57
50464;BME280;62167;38.552;-121.478;2022-10-04T22:49:26;101269.72;;;29.90;30.63
50464;BME280;62167;38.552;-121.478;2022-10-04T22:51:54;101266.97;;;29.90;32.08
50464;BME280;62167;38.552;-121.478;2022-10-04T22:54:27;101269.50;;;29.76;30.64
50464;BME280;62167;38.552;-121.478;2022-10-04T22:56:56;101261.72;;;29.78;30.67